Time;durP1;ratioP1;P1;durP2;ratioP2;P2;SDS_P1;SDS_P2;PMS_P1;PMS_P2;Temp;Humidity;BMP_temperature;BMP_pressure;BME280_temperature;BME280_humidity;BME280_pressure;Samples;Min_cycle;Max_cycle;Signal;HPM_P1;HPM_P2
2022/05/14 00:00:38;;;;;;;10.27;3.17;;;11.10;99.90;;;;;;5025489;28;20052;-68
2022/05/14 00:03:04;;;;;;;8.88;3.03;;;11.20;99.90;;;;;;5023793;28;20442;-68
2022/05/14 00:05:30;;;;;;;8.43;2.78;;;11.20;99.90;;;;;;5028417;28;20483;-68
2022/05/14 00:07:56;;;;;;;8.43;2.83;;;11.20;99.90;;;;;;5038321;28;20116;-68
2022/05/14 00:10:25;;;;;;;11.77;2.80;;;11.20;99.90;;;;;;5027982;28;20042;-68
2022/05/14 00:13:06;;;;;;;12.30;2.95;;;11.30;99.90;;;;;;5014139;28;20084;-68
2022/05/14 00:15:41;;;;;;;6.20;2.55;;;11.30;99.90;;;;;;5001258;28;20077;-68
2022/05/14 00:18:09;;;;;;;9.50;2.70;;;11.30;99.90;;;;;;5020897;28;20501;-68
2022/05/14 00:20:36;;;;;;;8.82;2.67;;;11.30;99.90;;;;;;5029009;28;20049;-68
2022/05/14 00:23:03;;;;;;;9.80;2.55;;;11.30;99.90;;;;;;5036010;28;20370;-68
2022/05/14 00:25:33;;;;;;;11.05;2.63;;;11.40;99.90;;;;;;5024135;28;20088;-68
2022/05/14 00:27:59;;;;;;;9.40;2.38;;;11.30;99.90;;;;;;5025441;28;20044;-68
2022/05/14 00:30:28;;;;;;;11.65;2.90;;;11.40;99.90;;;;;;5022319;28;20142;-69
2022/05/14 00:32:54;;;;;;;12.30;2.30;;;11.40;99.90;;;;;;5024827;28;20476;-68
2022/05/14 00:35:20;;;;;;;10.18;2.42;;;11.40;99.90;;;;;;5041632;28;20079;-68
2022/05/14 00:37:47;;;;;;;6.63;2.60;;;11.40;99.90;;;;;;5042659;28;20375;-69
2022/05/14 00:40:26;;;;;;;7.63;2.50;;;11.40;99.90;;;;;;5039435;28;20121;-69
2022/05/14 00:42:52;;;;;;;9.63;2.67;;;11.30;99.90;;;;;;5043520;28;20029;-69
2022/05/14 00:45:19;;;;;;;9.32;2.83;;;11.30;99.90;;;;;;5041370;28;20052;-69
2022/05/14 00:47:49;;;;;;;10.98;2.33;;;11.30;99.90;;;;;;5043880;28;20048;-69
2022/05/14 00:50:15;;;;;;;8.20;2.25;;;11.40;99.90;;;;;;5024745;28;20057;-69
2022/05/14 00:52:41;;;;;;;10.52;2.75;;;11.30;99.90;;;;;;5044733;28;20040;-69
2022/05/14 00:55:07;;;;;;;6.45;2.50;;;11.40;99.90;;;;;;5024355;28;20046;-69
2022/05/14 00:57:40;;;;;;;6.03;2.33;;;11.40;99.90;;;;;;5029168;28;20493;-69
2022/05/14 01:00:14;;;;;;;7.05;2.30;;;11.40;99.90;;;;;;5023156;28;20489;-69
2022/05/14 01:02:40;;;;;;;12.40;2.43;;;11.40;99.90;;;;;;5024687;28;20122;-69
2022/05/14 01:05:07;;;;;;;9.38;2.40;;;11.40;99.90;;;;;;5041057;28;20060;-69
2022/05/14 01:07:33;;;;;;;10.70;2.65;;;11.40;99.90;;;;;;5024184;28;20048;-69
2022/05/14 01:10:01;;;;;;;10.18;2.55;;;11.40;99.90;;;;;;5043784;28;20118;-69
2022/05/14 01:12:30;;;;;;;9.77;2.67;;;11.40;99.90;;;;;;5018076;28;20068;-69
2022/05/14 01:15:11;;;;;;;8.93;2.53;;;11.30;99.90;;;;;;5006234;28;20068;-69
2022/05/14 01:17:37;;;;;;;7.85;2.97;;;11.40;99.90;;;;;;5037301;28;20061;-69
2022/05/14 01:20:03;;;;;;;14.13;2.97;;;11.40;99.90;;;;;;5020785;28;20118;-69
2022/05/14 01:23:06;;;;;;;14.10;3.00;;;11.40;99.90;;;;;;5025320;28;20061;-69
2022/05/14 01:28:25;;;;;;;10.65;2.80;;;11.40;99.90;;;;;;5042258;28;20048;-68
2022/05/14 01:30:55;;;;;;;9.88;3.00;;;11.40;99.90;;;;;;5020041;28;20053;-68
2022/05/14 01:33:21;;;;;;;7.88;2.97;;;11.40;99.90;;;;;;5005849;28;20090;-68
2022/05/14 01:35:47;;;;;;;7.47;2.35;;;11.30;99.90;;;;;;5014662;28;20061;-68
2022/05/14 01:38:14;;;;;;;8.52;2.78;;;11.30;99.90;;;;;;5045589;28;20048;-69
2022/05/14 01:40:39;;;;;;;11.43;2.78;;;11.30;99.90;;;;;;5030036;28;20105;-69
2022/05/14 01:43:05;;;;;;;11.10;3.05;;;11.30;99.90;;;;;;5044002;28;20508;-69
2022/05/14 01:45:32;;;;;;;7.80;3.05;;;11.30;99.90;;;;;;5028501;28;20037;-70
2022/05/14 01:47:58;;;;;;;13.10;3.05;;;11.40;99.90;;;;;;5032458;28;20036;-69
2022/05/14 01:50:24;;;;;;;9.18;2.45;;;11.30;99.90;;;;;;5029028;28;20476;-68
2022/05/14 01:52:50;;;;;;;10.48;2.50;;;11.30;99.90;;;;;;5024270;28;20056;-69
2022/05/14 01:55:16;;;;;;;13.55;2.92;;;11.30;99.90;;;;;;5023669;28;20400;-69
2022/05/14 01:57:41;;;;;;;11.55;2.70;;;11.30;99.90;;;;;;5041003;28;20065;-69
2022/05/14 02:00:10;;;;;;;10.45;2.95;;;11.30;99.90;;;;;;5042174;28;20315;-69
2022/05/14 02:02:36;;;;;;;8.32;3.00;;;11.30;99.90;;;;;;5028029;28;20059;-69
2022/05/14 02:05:02;;;;;;;9.07;2.85;;;11.30;99.90;;;;;;5044133;28;20093;-69
2022/05/14 02:07:28;;;;;;;11.07;3.38;;;11.30;99.90;;;;;;5025712;28;20088;-69
2022/05/14 02:09:53;;;;;;;8.50;2.40;;;11.30;99.90;;;;;;5039065;28;20045;-69
2022/05/14 02:12:19;;;;;;;9.48;2.63;;;11.30;99.90;;;;;;5023430;28;20505;-69
2022/05/14 02:14:45;;;;;;;10.93;3.22;;;11.30;99.90;;;;;;5025402;28;20037;-69
2022/05/14 02:17:12;;;;;;;9.85;3.17;;;11.20;99.90;;;;;;5031109;28;20550;-69
2022/05/14 02:19:38;;;;;;;7.38;3.20;;;11.20;99.90;;;;;;5025596;28;20093;-69
2022/05/14 02:22:05;;;;;;;9.48;3.63;;;11.10;99.90;;;;;;5026967;28;20064;-69
2022/05/14 02:24:35;;;;;;;9.80;3.15;;;11.00;99.90;;;;;;5009933;28;20515;-69
2022/05/14 02:27:01;;;;;;;9.88;3.72;;;10.90;99.90;;;;;;5026841;28;20041;-69
2022/05/14 02:29:27;;;;;;;12.80;3.95;;;10.80;99.90;;;;;;5006224;28;20200;-68
2022/05/14 02:31:53;;;;;;;16.33;4.20;;;10.80;99.90;;;;;;5027814;28;20177;-68
2022/05/14 02:34:18;;;;;;;17.85;4.57;;;10.80;99.90;;;;;;5040535;28;20083;-69
2022/05/14 02:36:44;;;;;;;16.38;4.10;;;10.70;99.90;;;;;;5046703;28;20052;-68
2022/05/14 02:39:10;;;;;;;12.00;4.28;;;10.70;99.90;;;;;;5022878;28;20077;-68
2022/05/14 02:41:37;;;;;;;14.55;4.45;;;10.70;99.90;;;;;;5040945;28;20040;-69
2022/05/14 02:44:03;;;;;;;11.82;4.40;;;10.70;99.90;;;;;;5030773;28;20044;-69
2022/05/14 02:46:28;;;;;;;10.85;4.10;;;10.60;99.90;;;;;;5020726;28;20375;-68
2022/05/14 02:48:54;;;;;;;14.85;4.22;;;10.60;99.90;;;;;;5013636;28;20152;-69
2022/05/14 02:51:20;;;;;;;16.77;5.10;;;10.60;99.90;;;;;;5044322;28;20047;-69
2022/05/14 02:53:45;;;;;;;14.00;4.35;;;10.50;99.90;;;;;;5039168;28;20501;-68
2022/05/14 02:56:11;;;;;;;13.73;4.45;;;10.50;99.90;;;;;;5019788;28;20108;-68
2022/05/14 03:01:21;;;;;;;14.17;4.50;;;10.50;99.90;;;;;;5022046;28;20138;-69
2022/05/14 03:03:47;;;;;;;15.50;4.43;;;10.40;99.90;;;;;;5019812;28;20284;-69
2022/05/14 03:06:13;;;;;;;17.98;4.82;;;10.40;99.90;;;;;;5024505;28;20564;-69
2022/05/14 03:08:39;;;;;;;14.32;5.30;;;10.40;99.90;;;;;;5022597;28;20247;-69
2022/05/14 03:11:04;;;;;;;20.38;5.57;;;10.30;99.90;;;;;;5028383;28;20127;-68
2022/05/14 03:13:30;;;;;;;16.73;5.22;;;10.30;99.90;;;;;;5041630;28;20074;-69
2022/05/14 03:15:56;;;;;;;18.38;5.78;;;10.20;99.90;;;;;;5023801;28;20041;-69
2022/05/14 03:18:22;;;;;;;22.48;6.20;;;10.30;99.90;;;;;;5024089;28;20045;-69
2022/05/14 03:20:48;;;;;;;20.05;5.97;;;10.20;99.90;;;;;;5024252;28;20099;-68
2022/05/14 03:23:15;;;;;;;22.85;6.38;;;10.20;99.90;;;;;;5023831;28;20050;-68
2022/05/14 03:25:40;;;;;;;17.40;5.57;;;10.10;99.90;;;;;;5040606;28;20048;-68
2022/05/14 03:28:06;;;;;;;21.58;6.95;;;10.10;99.90;;;;;;5026598;28;20040;-68
2022/05/14 03:30:32;;;;;;;18.20;6.18;;;10.10;99.90;;;;;;5028044;28;20088;-68
2022/05/14 03:32:58;;;;;;;15.57;6.18;;;10.00;99.90;;;;;;5007269;28;20077;-68
2022/05/14 03:35:24;;;;;;;16.08;6.72;;;10.00;99.90;;;;;;5025577;28;20092;-68
2022/05/14 03:37:49;;;;;;;22.80;6.78;;;10.00;99.90;;;;;;5046834;28;20401;-68
2022/05/14 03:40:15;;;;;;;19.90;6.00;;;10.00;99.90;;;;;;5025456;28;20029;-68
2022/05/14 03:42:42;;;;;;;25.33;6.85;;;10.00;99.90;;;;;;5026771;28;20095;-68
2022/05/14 03:45:08;;;;;;;18.73;5.20;;;10.00;99.90;;;;;;5042775;28;20122;-68
2022/05/14 03:47:34;;;;;;;21.98;6.72;;;9.90;99.90;;;;;;5028995;28;20048;-69
2022/05/14 03:50:00;;;;;;;19.00;6.25;;;9.90;99.90;;;;;;5045740;28;20037;-68
2022/05/14 03:52:25;;;;;;;23.02;7.53;;;9.90;99.90;;;;;;5018577;28;20413;-68
2022/05/14 03:54:51;;;;;;;14.57;6.10;;;9.90;99.90;;;;;;5040339;28;20120;-68
2022/05/14 03:57:17;;;;;;;22.25;6.85;;;9.90;99.90;;;;;;5019016;28;20037;-68
2022/05/14 03:59:42;;;;;;;24.17;7.70;;;9.80;99.90;;;;;;5028707;28;20125;-68
2022/05/14 04:02:08;;;;;;;24.05;7.60;;;9.90;99.90;;;;;;5032193;28;20060;-68
2022/05/14 04:04:34;;;;;;;21.95;7.47;;;9.90;99.90;;;;;;5022861;28;20045;-68
2022/05/14 04:07:00;;;;;;;18.83;6.40;;;9.90;99.90;;;;;;5025600;28;20045;-68
2022/05/14 04:09:27;;;;;;;27.52;8.18;;;9.90;99.90;;;;;;5029723;28;20081;-68
2022/05/14 04:11:54;;;;;;;23.70;7.40;;;9.90;99.90;;;;;;5024301;28;20049;-68
2022/05/14 04:14:20;;;;;;;19.23;6.20;;;9.90;99.90;;;;;;5040867;28;20041;-68
2022/05/14 04:16:46;;;;;;;18.67;6.43;;;9.90;99.90;;;;;;5009618;28;20125;-69
2022/05/14 04:19:12;;;;;;;16.60;6.63;;;9.90;99.90;;;;;;5026742;28;20458;-68
2022/05/14 04:21:38;;;;;;;19.77;6.93;;;9.90;99.90;;;;;;5041975;28;20045;-68
2022/05/14 04:24:04;;;;;;;17.15;5.90;;;9.90;99.90;;;;;;5026048;28;20038;-69
2022/05/14 04:26:30;;;;;;;20.25;6.45;;;9.90;99.90;;;;;;5027741;28;20061;-68
2022/05/14 04:28:56;;;;;;;23.75;6.85;;;10.00;99.90;;;;;;5045093;28;20082;-68
2022/05/14 04:31:22;;;;;;;16.60;6.15;;;9.90;99.90;;;;;;5010964;28;20049;-68
2022/05/14 04:33:48;;;;;;;24.10;6.97;;;10.00;99.90;;;;;;5022241;28;20057;-68
2022/05/14 04:36:14;;;;;;;19.85;7.22;;;10.00;99.90;;;;;;5028907;28;20524;-68
2022/05/14 04:38:40;;;;;;;22.92;7.65;;;10.00;99.90;;;;;;5041122;28;20044;-68
2022/05/14 04:41:07;;;;;;;23.15;7.90;;;10.10;99.90;;;;;;5028971;28;20117;-68
2022/05/14 04:43:33;;;;;;;23.52;8.15;;;10.20;99.90;;;;;;5021922;28;20037;-67
2022/05/14 04:45:59;;;;;;;21.80;7.40;;;10.20;99.90;;;;;;5044994;28;20071;-67
2022/05/14 04:48:24;;;;;;;25.85;8.70;;;10.30;99.90;;;;;;5024311;28;20075;-68
2022/05/14 04:50:50;;;;;;;19.65;7.68;;;10.40;99.90;;;;;;5028872;28;20057;-68
2022/05/14 04:53:16;;;;;;;25.20;9.02;;;10.50;99.90;;;;;;5035287;28;20034;-68
2022/05/14 04:55:43;;;;;;;24.05;8.90;;;10.60;99.90;;;;;;5042408;28;20044;-68
2022/05/14 04:58:09;;;;;;;24.25;8.52;;;10.70;99.90;;;;;;5029158;28;20087;-67
2022/05/14 05:00:36;;;;;;;26.92;8.88;;;10.80;99.90;;;;;;5024167;28;20032;-67
2022/05/14 05:03:19;;;;;;;26.88;8.45;;;10.90;99.90;;;;;;5025241;28;20045;-67
2022/05/14 05:05:51;;;;;;;23.55;8.60;;;11.00;99.90;;;;;;5044074;28;20032;-67
2022/05/14 05:08:17;;;;;;;24.83;8.82;;;11.30;99.90;;;;;;5046951;28;20530;-68
2022/05/14 05:10:44;;;;;;;22.27;9.48;;;11.70;99.90;;;;;;5028717;28;20132;-69
2022/05/14 05:13:16;;;;;;;24.52;8.35;;;11.90;99.90;;;;;;5029360;28;20057;-68
2022/05/14 05:15:43;;;;;;;21.40;8.07;;;12.00;99.90;;;;;;5000788;28;20069;-68
2022/05/14 05:18:10;;;;;;;20.25;8.25;;;12.10;99.90;;;;;;5046591;28;20037;-68
2022/05/14 05:20:38;;;;;;;26.48;9.18;;;12.20;99.90;;;;;;5048945;28;20033;-68
2022/05/14 05:23:05;;;;;;;24.02;8.98;;;12.30;99.90;;;;;;5029181;28;20515;-68
2022/05/14 05:25:31;;;;;;;23.75;7.57;;;12.40;99.90;;;;;;5030006;28;20057;-68
2022/05/14 05:27:57;;;;;;;30.92;9.02;;;12.50;99.90;;;;;;5048703;28;20143;-68
2022/05/14 05:30:23;;;;;;;24.45;8.57;;;12.50;99.90;;;;;;5049049;28;20068;-68
2022/05/14 05:32:49;;;;;;;22.63;7.80;;;12.60;99.90;;;;;;5027662;28;20061;-68
2022/05/14 05:35:15;;;;;;;19.92;7.78;;;12.80;99.90;;;;;;5032137;28;20159;-68
2022/05/14 05:37:40;;;;;;;24.48;8.05;;;12.90;99.90;;;;;;5043761;28;20129;-68
2022/05/14 05:40:07;;;;;;;26.77;8.25;;;13.00;99.90;;;;;;5023973;28;20120;-68
2022/05/14 05:42:32;;;;;;;22.63;7.93;;;13.00;99.90;;;;;;5027075;28;20490;-68
2022/05/14 05:44:59;;;;;;;27.77;8.05;;;13.20;99.90;;;;;;5023832;28;20183;-68
2022/05/14 05:47:25;;;;;;;26.38;8.50;;;13.30;99.90;;;;;;5046289;28;20115;-67
2022/05/14 05:49:51;;;;;;;20.95;7.85;;;13.40;99.90;;;;;;5044336;28;20252;-67
2022/05/14 05:52:16;;;;;;;26.75;7.85;;;13.50;99.90;;;;;;5048968;28;20555;-67
2022/05/14 05:57:37;;;;;;;25.55;8.27;;;13.80;99.90;;;;;;5051301;28;20056;-68
2022/05/14 06:00:14;;;;;;;24.95;7.65;;;13.90;99.90;;;;;;5046089;28;20476;-68
2022/05/14 06:02:40;;;;;;;19.10;6.45;;;14.10;99.90;;;;;;5032628;28;20119;-68
2022/05/14 06:05:06;;;;;;;27.33;7.60;;;14.20;99.90;;;;;;5027963;28;20183;-68
2022/05/14 06:07:33;;;;;;;30.90;7.82;;;14.40;99.90;;;;;;5030588;28;20380;-68
2022/05/14 06:10:00;;;;;;;25.85;7.25;;;14.50;99.90;;;;;;5047618;28;20487;-68
2022/05/14 06:12:26;;;;;;;31.13;13.77;;;14.60;99.90;;;;;;5046890;28;20449;-68
2022/05/14 06:14:51;;;;;;;21.33;6.78;;;14.70;99.90;;;;;;5031014;28;20053;-68
2022/05/14 06:17:17;;;;;;;21.17;6.90;;;14.90;99.90;;;;;;5026821;28;20144;-68
2022/05/14 06:19:43;;;;;;;23.85;7.53;;;15.00;99.90;;;;;;5028743;28;20056;-68
2022/05/14 06:22:09;;;;;;;22.48;7.22;;;15.20;99.90;;;;;;5025656;28;20056;-68
2022/05/14 06:24:38;;;;;;;42.47;22.27;;;15.30;99.90;;;;;;5031982;28;20127;-68
2022/05/14 06:27:04;;;;;;;28.58;7.38;;;15.60;99.90;;;;;;5046324;28;20615;-68
2022/05/14 06:29:31;;;;;;;21.33;6.50;;;15.70;99.90;;;;;;5026437;28;20436;-68
2022/05/14 06:31:58;;;;;;;44.15;24.95;;;15.90;99.90;;;;;;5031121;28;20041;-69
2022/05/14 06:34:24;;;;;;;27.23;8.07;;;16.00;99.90;;;;;;5025153;28;20089;-69
2022/05/14 06:36:51;;;;;;;25.00;7.47;;;16.00;99.90;;;;;;5039677;28;20060;-68
2022/05/14 06:39:17;;;;;;;27.58;10.25;;;16.10;99.90;;;;;;5023788;28;20397;-68
2022/05/14 06:41:43;;;;;;;22.27;6.45;;;16.20;99.90;;;;;;5025105;28;20107;-68
2022/05/14 06:44:09;;;;;;;22.25;6.45;;;16.10;99.90;;;;;;5046262;28;20385;-68
2022/05/14 06:46:35;;;;;;;20.90;6.35;;;16.00;99.90;;;;;;5024788;28;20044;-69
2022/05/14 06:49:03;;;;;;;22.25;6.47;;;15.80;99.90;;;;;;5028928;28;20661;-69
2022/05/14 06:51:31;;;;;;;23.48;7.03;;;15.80;99.90;;;;;;5024965;28;20128;-69
2022/05/14 06:54:01;;;;;;;23.55;6.25;;;15.80;99.90;;;;;;5023616;28;20052;-69
2022/05/14 06:56:28;;;;;;;22.02;6.05;;;15.90;99.90;;;;;;5026720;28;20083;-70
2022/05/14 06:58:55;;;;;;;101.57;80.13;;;16.10;99.90;;;;;;5031211;28;20041;-68
2022/05/14 07:01:21;;;;;;;22.50;7.78;;;16.20;99.90;;;;;;5027504;28;20084;-69
2022/05/14 07:06:39;;;;;;;20.30;5.72;;;16.50;99.90;;;;;;5044711;28;20063;-69
2022/05/14 07:09:14;;;;;;;23.48;7.07;;;16.70;99.90;;;;;;5044403;28;20690;-69
2022/05/14 07:11:43;;;;;;;25.17;6.30;;;16.90;99.90;;;;;;5043166;28;20060;-69
2022/05/14 07:14:10;;;;;;;24.85;6.35;;;17.00;99.90;;;;;;5046367;28;20047;-69
2022/05/14 07:16:37;;;;;;;23.75;5.97;;;17.10;99.90;;;;;;5041962;28;20040;-69
2022/05/14 07:19:06;;;;;;;20.75;5.07;;;17.20;99.90;;;;;;5044370;28;20086;-69
2022/05/14 07:21:36;;;;;;;20.80;6.15;;;17.30;99.90;;;;;;5006239;28;20465;-68
2022/05/14 07:24:05;;;;;;;20.17;5.47;;;17.60;99.90;;;;;;5044620;28;20445;-68
2022/05/14 07:26:33;;;;;;;19.25;5.07;;;18.00;99.90;;;;;;5021592;28;20045;-69
2022/05/14 07:29:00;;;;;;;21.63;5.65;;;18.50;99.90;;;;;;5029767;28;20059;-69
2022/05/14 07:31:26;;;;;;;22.80;6.00;;;18.90;98.60;;;;;;5023137;28;20053;-69
2022/05/14 07:33:52;;;;;;;24.67;6.93;;;19.20;98.10;;;;;;5028269;28;20073;-69
2022/05/14 07:36:21;;;;;;;15.60;4.57;;;19.60;96.60;;;;;;5006899;28;20414;-69
2022/05/14 07:38:48;;;;;;;24.63;5.28;;;19.90;93.50;;;;;;5022946;28;20092;-69
2022/05/14 07:41:15;;;;;;;16.38;4.20;;;19.70;90.30;;;;;;5010784;28;20156;-69
2022/05/14 07:43:46;;;;;;;14.88;3.80;;;19.40;89.70;;;;;;5013338;28;20056;-69
2022/05/14 07:46:19;;;;;;;15.35;5.10;;;19.30;90.10;;;;;;5044873;28;20127;-69
2022/05/14 07:48:46;;;;;;;20.35;5.22;;;19.20;90.60;;;;;;5043883;28;20045;-69
2022/05/14 07:51:12;;;;;;;20.63;4.78;;;19.40;90.50;;;;;;5025870;28;20053;-70
2022/05/14 07:53:39;;;;;;;20.65;4.63;;;19.40;88.90;;;;;;5025244;28;20079;-69
2022/05/14 07:56:08;;;;;;;22.42;5.45;;;19.50;89.20;;;;;;5044826;28;20469;-69
2022/05/14 07:58:34;;;;;;;22.88;5.55;;;19.70;90.00;;;;;;5043466;28;20037;-69
2022/05/14 08:01:00;;;;;;;21.55;4.82;;;19.50;90.10;;;;;;5044937;28;20059;-70
2022/05/14 08:03:26;;;;;;;20.77;4.90;;;19.30;91.00;;;;;;5024175;28;20117;-69
2022/05/14 08:05:56;;;;;;;21.52;5.45;;;19.20;91.50;;;;;;5045470;28;20041;-69
2022/05/14 08:08:23;;;;;;;21.27;5.65;;;19.30;91.70;;;;;;5013104;28;20040;-70
2022/05/14 08:10:49;;;;;;;23.83;4.95;;;19.70;91.10;;;;;;5042638;28;20052;-70
2022/05/14 08:13:17;;;;;;;19.77;6.10;;;20.30;89.90;;;;;;5043901;28;20097;-70
2022/05/14 08:15:44;;;;;;;19.48;5.20;;;20.80;86.90;;;;;;5025265;28;20404;-70
2022/05/14 08:18:10;;;;;;;19.58;4.57;;;21.40;88.50;;;;;;5024116;28;20052;-70
2022/05/14 08:20:36;;;;;;;17.23;4.80;;;21.80;85.40;;;;;;5024523;28;20053;-70
2022/05/14 08:25:49;;;;;;;21.70;5.47;;;21.60;82.40;;;;;;5036613;28;20083;-69
2022/05/14 08:28:15;;;;;;;15.95;4.78;;;22.10;81.60;;;;;;5024084;28;20077;-70
2022/05/14 08:30:41;;;;;;;24.15;5.60;;;22.50;80.30;;;;;;5031114;28;20061;-70
2022/05/14 08:33:07;;;;;;;20.92;5.55;;;22.80;76.90;;;;;;5026648;28;20106;-71
2022/05/14 08:35:33;;;;;;;15.93;4.57;;;23.10;75.80;;;;;;5022936;28;20096;-69
2022/05/14 08:37:59;;;;;;;18.45;5.50;;;23.40;72.70;;;;;;5026690;28;20053;-70
2022/05/14 08:40:28;;;;;;;19.70;4.68;;;23.20;68.40;;;;;;5043430;28;20116;-69
2022/05/14 08:43:03;;;;;;;17.67;4.93;;;23.20;71.20;;;;;;5038136;28;20045;-70
2022/05/14 08:45:33;;;;;;;18.73;5.40;;;23.50;69.40;;;;;;5026936;28;20160;-70
2022/05/14 08:48:04;;;;;;;19.25;5.88;;;23.80;67.70;;;;;;5010655;28;20076;-70
2022/05/14 08:50:33;;;;;;;16.42;4.93;;;23.90;68.10;;;;;;5042200;28;20041;-70
2022/05/14 08:53:01;;;;;;;13.25;4.18;;;24.10;65.80;;;;;;5040304;28;20041;-70
2022/05/14 08:55:38;;;;;;;17.25;4.53;;;23.80;64.80;;;;;;5041831;28;20057;-70
2022/05/14 08:58:40;;;;;;;14.95;4.45;;;23.60;62.80;;;;;;5024820;28;20040;-70
2022/05/14 09:01:07;;;;;;;16.63;4.80;;;23.30;63.40;;;;;;5041701;28;20048;-70
2022/05/14 09:03:33;;;;;;;15.48;5.00;;;23.20;62.90;;;;;;5026440;28;20106;-70
2022/05/14 09:05:59;;;;;;;15.52;4.53;;;22.70;61.90;;;;;;5040999;28;20092;-70
2022/05/14 09:08:25;;;;;;;24.23;5.65;;;22.10;64.30;;;;;;5037989;28;20047;-68
2022/05/14 09:11:01;;;;;;;19.42;5.22;;;21.60;66.50;;;;;;5020228;28;20060;-68
2022/05/14 09:13:28;;;;;;;19.20;4.13;;;21.50;67.00;;;;;;5039112;28;20509;-68
2022/05/14 09:16:02;;;;;;;19.48;4.60;;;21.50;67.40;;;;;;5036642;28;20049;-68
2022/05/14 09:18:29;;;;;;;;;;;21.40;66.90;;;;;;5024792;28;20168;-67
2022/05/14 09:21:05;;;;;;;16.77;4.68;;;21.10;67.40;;;;;;5041089;28;19962;-68
2022/05/14 09:23:44;;;;;;;18.67;4.70;;;20.80;69.00;;;;;;5024672;28;20440;-68
2022/05/14 09:26:32;;;;;;;19.40;5.00;;;20.40;70.50;;;;;;5042415;28;20095;-68
2022/05/14 09:29:29;;;;;;;18.67;5.00;;;20.30;71.80;;;;;;5023499;28;20134;-71
2022/05/14 09:32:04;;;;;;;19.20;4.70;;;20.60;73.10;;;;;;5042845;28;20573;-70
2022/05/14 09:34:33;;;;;;;18.42;4.28;;;21.30;73.00;;;;;;5021551;28;21445;-70
2022/05/14 09:37:09;;;;;;;16.70;4.65;;;21.70;69.10;;;;;;5026309;28;20076;-70
2022/05/14 09:39:36;;;;;;;15.02;4.45;;;22.20;68.40;;;;;;5038568;28;20045;-70
2022/05/14 09:42:04;;;;;;;16.88;4.50;;;22.70;65.30;;;;;;5040785;28;20034;-70
2022/05/14 09:44:49;;;;;;;14.82;4.95;;;23.00;64.30;;;;;;5043509;28;20049;-67
2022/05/14 09:47:28;;;;;;;16.98;4.30;;;23.50;63.10;;;;;;5040455;28;20053;-68
2022/05/14 09:49:59;;;;;;;13.23;3.95;;;23.70;59.00;;;;;;5042776;28;20039;-68
2022/05/14 09:52:32;;;;;;;13.10;3.97;;;23.40;56.90;;;;;;5038299;28;20061;-68
2022/05/14 09:55:01;;;;;;;14.88;4.55;;;23.50;60.40;;;;;;5045946;28;20037;-68
2022/05/14 09:57:33;;;;;;;11.30;4.15;;;24.00;58.80;;;;;;5041119;28;20127;-67
2022/05/14 10:00:27;;;;;;;15.85;4.82;;;24.40;57.80;;;;;;5028521;28;20386;-69
2022/05/14 10:03:38;;;;;;;18.58;8.20;;;23.90;54.10;;;;;;5014389;28;20155;-70
2022/05/14 10:06:24;;;;;;;16.08;4.63;;;23.10;56.20;;;;;;5011522;28;20128;-71
2022/05/14 10:09:01;;;;;;;14.02;4.38;;;22.90;59.00;;;;;;5015910;28;20060;-70
2022/05/14 10:11:44;;;;;;;16.73;4.47;;;22.90;56.30;;;;;;5046108;28;20126;-70
2022/05/14 10:14:36;;;;;;;12.90;4.10;;;22.60;55.20;;;;;;5035219;28;20140;-68
2022/05/14 10:17:31;;;;;;;18.55;4.53;;;22.40;56.00;;;;;;5039073;28;20037;-70
2022/05/14 10:20:15;;;;;;;15.40;4.50;;;22.30;56.90;;;;;;5018467;28;20481;-70
2022/05/14 10:29:04;;;;;;;20.15;4.40;;;21.60;58.80;;;;;;5038661;28;20071;-70
2022/05/14 10:31:55;;;;;;;16.20;4.90;;;21.40;60.10;;;;;;5028924;28;20133;-69
2022/05/14 10:34:50;;;;;;;18.88;4.22;;;21.20;60.80;;;;;;5043349;28;20135;-70
2022/05/14 10:37:31;;;;;;;18.80;5.13;;;21.30;61.60;;;;;;5040001;28;20137;-70
2022/05/14 10:40:06;;;;;;;19.15;4.88;;;21.50;59.70;;;;;;5031702;28;20419;-70
2022/05/14 10:43:07;;;;;;;18.42;5.47;;;21.30;59.80;;;;;;5028681;28;20041;-70
2022/05/14 10:45:47;;;;;;;15.40;4.30;;;21.00;59.80;;;;;;5025671;28;20050;-68
2022/05/14 10:48:37;;;;;;;19.33;4.60;;;20.70;60.70;;;;;;5027786;28;20052;-67
2022/05/14 10:51:06;;;;;;;15.73;4.13;;;21.00;61.90;;;;;;5023924;28;20449;-69
2022/05/14 10:53:33;;;;;;;14.82;4.93;;;21.40;59.80;;;;;;5024707;28;20361;-69
2022/05/14 10:56:01;;;;;;;16.40;4.05;;;21.30;59.40;;;;;;5043504;28;20030;-68
2022/05/14 10:58:49;;;;;;;15.15;3.97;;;21.10;59.10;;;;;;5023666;28;20046;-68
2022/05/14 11:01:30;;;;;;;18.13;4.30;;;21.00;60.40;;;;;;5024956;28;20501;-69
2022/05/14 11:04:20;;;;;;;19.05;4.38;;;20.90;59.10;;;;;;5021018;28;20051;-69
2022/05/14 11:06:58;;;;;;;14.80;4.32;;;21.00;59.40;;;;;;5040470;28;20040;-69
2022/05/14 11:09:44;;;;;;;18.00;4.35;;;21.00;60.70;;;;;;5041740;28;20048;-70
2022/05/14 11:12:19;;;;;;;17.90;4.00;;;20.90;60.00;;;;;;5017829;28;20089;-70
2022/05/14 11:14:48;;;;;;;18.70;4.32;;;20.90;60.00;;;;;;5041961;28;20041;-68
2022/05/14 11:17:24;;;;;;;18.95;4.50;;;21.40;61.20;;;;;;5024729;28;20040;-68
2022/05/14 11:19:53;;;;;;;14.88;4.30;;;22.00;58.20;;;;;;5042126;28;20171;-69
2022/05/14 11:22:29;;;;;;;15.75;4.25;;;22.30;58.40;;;;;;5025357;28;20132;-69
2022/05/14 11:24:55;;;;;;;20.75;4.75;;;22.80;58.00;;;;;;5042770;28;20036;-70
2022/05/14 11:27:32;;;;;;;15.52;4.30;;;23.40;57.00;;;;;;5025003;28;20474;-70
2022/05/14 11:30:04;;;;;;;15.75;4.93;;;23.90;56.70;;;;;;5047332;28;20030;-69
2022/05/14 11:32:45;;;;;;;20.67;4.97;;;24.20;54.50;;;;;;5043113;28;20068;-70
2022/05/14 11:35:11;;;;;;;13.63;4.13;;;24.20;53.20;;;;;;5044345;28;20038;-70
2022/05/14 11:37:43;;;;;;;14.27;4.18;;;23.90;54.30;;;;;;5024768;28;20056;-69
2022/05/14 11:40:21;;;;;;;16.30;4.85;;;23.60;52.80;;;;;;5023280;28;20049;-70
2022/05/14 11:42:51;;;;;;;18.98;5.13;;;23.40;53.70;;;;;;5026689;28;20116;-69
2022/05/14 11:45:26;;;;;;;13.95;4.10;;;23.30;54.50;;;;;;5043562;28;20081;-70
2022/05/14 11:48:11;;;;;;;16.20;4.47;;;23.40;53.80;;;;;;5006449;28;20060;-70
2022/05/14 11:50:49;;;;;;;16.77;4.90;;;24.00;53.40;;;;;;5041483;28;20044;-69
2022/05/14 11:53:44;;;;;;;18.25;5.20;;;24.70;53.40;;;;;;5043849;28;20037;-71
2022/05/14 11:56:13;;;;;;;;;;;25.50;50.50;;;;;;5033107;28;20049;-69
2022/05/14 11:59:20;;;;;;;20.65;7.85;;;26.00;51.50;;;;;;5035909;28;20335;-66
2022/05/14 12:01:49;;;;;;;18.50;5.20;;;26.20;48.10;;;;;;4944599;28;20085;-67
2022/05/14 12:04:22;;;;;;;15.13;4.15;;;26.30;49.80;;;;;;5023167;28;20054;-67
2022/05/14 12:07:00;;;;;;;;;;;26.60;47.80;;;;;;5041117;28;20524;-66
2022/05/14 12:09:53;;;;;;;15.70;3.90;;;26.60;43.70;;;;;;5041464;28;20067;-66
2022/05/14 12:12:48;;;;;;;14.95;3.83;;;26.40;46.50;;;;;;5046099;28;20129;-68
2022/05/14 12:15:21;;;;;;;12.35;4.10;;;26.30;47.80;;;;;;5026595;28;20366;-71
2022/05/14 12:17:56;;;;;;;13.02;4.03;;;25.80;47.20;;;;;;5022578;28;20045;-70
2022/05/14 12:20:25;;;;;;;13.13;4.22;;;25.10;46.10;;;;;;5022741;28;20393;-70
2022/05/14 12:23:04;;;;;;;13.43;3.55;;;24.50;47.70;;;;;;5025598;28;20056;-70
2022/05/14 12:25:41;;;;;;;13.57;4.00;;;24.40;49.30;;;;;;5027157;28;20735;-70
2022/05/14 12:28:23;;;;;;;14.27;4.30;;;24.80;49.40;;;;;;5040913;28;20049;-70
2022/05/14 12:33:58;;;;;;;12.68;4.13;;;25.30;47.10;;;;;;5019185;28;20076;-70
2022/05/14 12:36:26;;;;;;;14.98;3.97;;;24.70;47.10;;;;;;5046648;28;20037;-70
2022/05/14 12:38:52;;;;;;;14.70;4.63;;;24.40;49.40;;;;;;5037385;28;20136;-70
2022/05/14 12:41:25;;;;;;;16.65;5.20;;;24.10;48.50;;;;;;5040892;28;20113;-70
2022/05/14 12:43:51;;;;;;;13.70;4.43;;;23.70;49.60;;;;;;5035093;28;20049;-70
2022/05/14 12:46:19;;;;;;;13.40;4.32;;;23.30;49.20;;;;;;5027840;28;20063;-70
2022/05/14 12:48:49;;;;;;;15.15;4.57;;;22.90;50.10;;;;;;5034468;28;20390;-70
2022/05/14 12:51:20;;;;;;;17.70;5.15;;;22.70;51.10;;;;;;5037865;28;20040;-70
2022/05/14 12:53:46;;;;;;;13.52;4.03;;;22.80;50.60;;;;;;5019406;28;20060;-70
2022/05/14 12:56:12;;;;;;;13.52;3.80;;;22.60;50.00;;;;;;5021011;28;20040;-69
2022/05/14 12:58:40;;;;;;;15.07;4.68;;;22.70;50.60;;;;;;5041008;28;20037;-70
2022/05/14 13:01:08;;;;;;;17.73;4.88;;;22.70;51.30;;;;;;5025320;28;20037;-69
2022/05/14 13:03:39;;;;;;;15.93;5.10;;;22.80;50.90;;;;;;5039554;28;20137;-70
2022/05/14 13:06:09;;;;;;;14.55;3.95;;;22.70;51.50;;;;;;5027093;28;20134;-70
2022/05/14 13:08:42;;;;;;;14.85;4.65;;;22.80;52.20;;;;;;5024389;28;20064;-69
2022/05/14 13:11:17;;;;;;;14.10;3.85;;;22.70;50.60;;;;;;5041280;28;20060;-70
2022/05/14 13:13:47;;;;;;;16.40;4.20;;;22.50;50.30;;;;;;5040296;28;20044;-70
2022/05/14 13:16:23;;;;;;;15.35;4.60;;;22.30;50.20;;;;;;5040579;28;20120;-69